Time;durP1;ratioP1;P1;durP2;ratioP2;P2;SDS_P1;SDS_P2;PMS_P1;PMS_P2;Temp;Humidity;BMP_temperature;BMP_pressure;BME280_temperature;BME280_humidity;BME280_pressure;Samples;Min_cycle;Max_cycle;Signal;HPM_P1;HPM_P2
2020/12/26 00:01:29;;;;;;;3.58;1.65;;;;;;;3.34;65.27;98992.37;1737727;80;21647;-36
2020/12/26 00:03:58;;;;;;;2.42;1.50;;;;;;;3.31;65.10;98988.97;1779430;80;21401;-36
2020/12/26 00:06:26;;;;;;;3.90;2.22;;;;;;;3.27;65.26;98995.53;1809039;78;21241;-36
2020/12/26 00:08:54;;;;;;;2.20;1.62;;;;;;;3.23;65.23;98996.48;1788825;78;21170;-36
2020/12/26 00:11:23;;;;;;;2.55;1.60;;;;;;;3.20;65.29;99000.58;1804902;78;21051;-36
2020/12/26 00:13:51;;;;;;;1.70;1.60;;;;;;;3.21;65.36;98996.80;1756585;80;21538;-36
2020/12/26 00:16:19;;;;;;;3.55;1.55;;;;;;;3.30;65.13;99003.47;1748669;82;21188;-36
2020/12/26 00:18:48;;;;;;;2.85;1.80;;;;;;;3.32;64.96;99009.30;1749446;80;21333;-36
2020/12/26 00:21:17;;;;;;;2.55;1.70;;;;;;;3.29;64.89;99012.63;1793263;78;21186;-36
2020/12/26 00:23:45;;;;;;;1.77;1.50;;;;;;;3.27;64.79;99020.98;1762299;80;21175;-36
2020/12/26 00:26:18;;;;;;;2.08;1.60;;;;;;;3.26;64.88;99025.31;1797187;78;21099;-36
2020/12/26 00:28:47;;;;;;;2.27;1.65;;;;;;;3.20;64.72;99017.20;1808464;78;21183;-36
2020/12/26 00:31:17;;;;;;;1.85;1.60;;;;;;;3.13;64.48;99016.37;1744442;80;22366;-36
2020/12/26 00:33:45;;;;;;;1.75;1.30;;;;;;;3.09;64.59;99017.33;1793063;78;21162;-36
2020/12/26 00:36:13;;;;;;;3.65;1.50;;;;;;;3.05;64.65;99015.27;1802835;78;21561;-36
2020/12/26 00:38:42;;;;;;;2.60;1.72;;;;;;;2.99;64.83;99015.22;1775732;79;21135;-36
2020/12/26 00:41:14;;;;;;;2.35;1.70;;;;;;;2.98;64.69;99011.51;1777093;79;21606;-37
2020/12/26 00:43:42;;;;;;;3.70;1.98;;;;;;;2.97;64.81;99016.07;1786880;78;21363;-36
2020/12/26 00:46:11;;;;;;;4.10;2.20;;;;;;;2.98;64.70;99008.28;1796120;79;21012;-36
2020/12/26 00:48:40;;;;;;;3.00;2.20;;;;;;;2.96;64.73;99013.70;1775625;79;21562;-36
2020/12/26 00:51:13;;;;;;;3.72;2.35;;;;;;;2.92;64.92;99011.43;1774354;78;21135;-36
2020/12/26 00:53:42;;;;;;;3.77;2.10;;;;;;;2.94;64.94;99019.95;1754916;81;21428;-36
2020/12/26 00:56:10;;;;;;;2.60;1.80;;;;;;;2.94;64.93;99018.61;1721805;82;22345;-36
2020/12/26 00:58:39;;;;;;;2.85;1.80;;;;;;;2.94;64.84;99018.61;1741164;81;21175;-36
2020/12/26 01:01:08;;;;;;;2.05;1.40;;;;;;;2.92;64.86;99024.27;1732902;81;21574;-36
2020/12/26 01:03:59;;;;;;;2.70;1.57;;;;;;;2.98;64.76;99028.91;1812505;78;22740;-36
2020/12/26 01:06:27;;;;;;;2.00;1.50;;;;;;;2.93;64.87;99031.75;1808575;78;21008;-36
2020/12/26 01:08:55;;;;;;;2.55;1.77;;;;;;;2.85;65.14;99032.01;1814925;78;21320;-36
2020/12/26 01:11:24;;;;;;;5.22;2.20;;;;;;;2.88;65.26;99031.36;1748606;81;20984;-36
2020/12/26 01:13:52;;;;;;;2.50;1.72;;;;;;;2.91;65.21;99029.38;1729224;81;21039;-36
2020/12/26 01:16:20;;;;;;;3.52;1.60;;;;;;;2.90;65.39;99031.05;1749530;80;21039;-36
2020/12/26 01:18:49;;;;;;;3.37;1.70;;;;;;;2.91;65.44;99036.62;1749652;80;20985;-36
2020/12/26 01:21:17;;;;;;;4.22;1.87;;;;;;;2.84;65.35;99030.42;1755702;80;21802;-36
2020/12/26 01:23:45;;;;;;;4.37;2.72;;;;;;;2.98;65.32;99036.39;1749233;82;21055;-36
2020/12/26 01:26:14;;;;;;;6.10;2.20;;;;;;;2.97;65.40;99033.48;1759700;80;20937;-36
2020/12/26 01:28:44;;;;;;;3.10;1.93;;;;;;;2.98;65.23;99035.61;1752487;80;21183;-36
2020/12/26 01:31:14;;;;;;;2.85;1.95;;;;;;;2.95;65.27;99025.54;1703281;82;21551;-36
2020/12/26 01:33:44;;;;;;;2.58;1.92;;;;;;;2.91;65.27;99021.34;1775136;80;21493;-36
2020/12/26 01:36:13;;;;;;;3.27;2.08;;;;;;;2.90;65.12;99022.48;1733029;80;21162;-36
2020/12/26 01:38:41;;;;;;;2.30;1.75;;;;;;;2.92;65.06;99021.59;1738404;82;21012;-36
2020/12/26 01:41:10;;;;;;;2.52;1.75;;;;;;;2.86;65.22;99022.84;1748522;81;21179;-36
2020/12/26 01:43:39;;;;;;;3.37;1.62;;;;;;;2.78;65.32;99023.65;1727116;81;21174;-36
2020/12/26 01:46:07;;;;;;;2.98;2.17;;;;;;;2.80;65.49;99018.78;1755735;80;21272;-36
2020/12/26 01:48:36;;;;;;;1.65;1.50;;;;;;;2.81;65.48;99023.01;1742259;81;21059;-36
2020/12/26 01:51:04;;;;;;;2.60;1.70;;;;;;;2.79;65.46;99019.88;1750570;80;21122;-36
2020/12/26 01:53:33;;;;;;;2.15;1.80;;;;;;;2.76;65.67;99023.75;1738381;80;21183;-36
2020/12/26 01:56:01;;;;;;;2.65;1.75;;;;;;;2.77;65.63;99023.95;1729091;81;21194;-36
2020/12/26 01:58:29;;;;;;;2.70;1.70;;;;;;;2.74;65.48;99024.60;1748853;81;21198;-36
2020/12/26 02:00:57;;;;;;;2.17;1.75;;;;;;;2.73;65.41;99027.83;1738990;81;21152;-36
2020/12/26 02:03:26;;;;;;;1.65;1.45;;;;;;;2.69;65.11;99022.88;1731384;81;21099;-36
2020/12/26 02:05:55;;;;;;;2.72;1.90;;;;;;;2.69;65.23;99026.09;1736337;81;21056;-36
2020/12/26 02:08:23;;;;;;;2.05;1.70;;;;;;;2.73;65.02;99033.17;1731141;81;21174;-36
2020/12/26 02:10:53;;;;;;;2.08;1.60;;;;;;;2.74;64.58;99032.08;1718396;82;21219;-36
2020/12/26 02:13:21;;;;;;;2.02;1.42;;;;;;;2.72;64.46;99030.26;1724214;81;21589;-36
2020/12/26 02:16:08;;;;;;;2.87;1.55;;;;;;;2.74;64.61;99035.30;1733722;81;21586;-36
2020/12/26 02:18:36;;;;;;;2.70;1.80;;;;;;;2.75;64.40;99040.35;1737998;81;21174;-36
2020/12/26 02:21:07;;;;;;;1.92;1.42;;;;;;;2.71;64.49;99046.66;1728213;80;21163;-36
2020/12/26 02:23:37;;;;;;;;;;;;;;;2.71;64.35;99046.08;1730420;82;21852;-36
2020/12/26 02:26:05;;;;;;;;;;;;;;;2.70;64.38;99040.52;1736045;82;20237;-36
2020/12/26 02:28:33;;;;;;;3.05;1.87;;;;;;;2.60;64.40;99040.82;1742108;81;20222;-36
2020/12/26 02:31:02;;;;;;;2.65;2.05;;;;;;;2.54;64.47;99041.52;1711440;81;21154;-36
2020/12/26 02:33:31;;;;;;;4.10;1.90;;;;;;;2.57;64.52;99040.09;1762093;80;21123;-36
2020/12/26 02:35:59;;;;;;;3.37;1.70;;;;;;;2.60;64.36;99045.63;1722281;82;21213;-36
2020/12/26 02:38:27;;;;;;;2.80;1.98;;;;;;;2.63;63.75;99049.55;1737583;82;21163;-36
2020/12/26 02:40:56;;;;;;;2.35;1.80;;;;;;;2.59;63.91;99044.05;1725726;80;21121;-36
2020/12/26 02:43:26;;;;;;;3.52;2.20;;;;;;;2.59;64.04;99040.58;1738479;80;21147;-36
2020/12/26 02:45:55;;;;;;;4.12;2.50;;;;;;;2.60;63.95;99050.19;1764440;80;21174;-35
2020/12/26 02:48:23;;;;;;;4.47;2.62;;;;;;;2.65;63.85;99051.38;1748691;81;21315;-36
2020/12/26 02:50:54;;;;;;;5.03;2.67;;;;;;;2.65;63.94;99044.68;1768556;80;21175;-36
2020/12/26 02:53:23;;;;;;;4.25;2.52;;;;;;;2.65;63.81;99046.56;1710860;80;21181;-36
2020/12/26 02:55:52;;;;;;;3.37;1.83;;;;;;;2.67;63.92;99050.48;1751811;81;21145;-36
2020/12/26 02:58:20;;;;;;;4.03;2.37;;;;;;;2.66;63.85;99054.29;1753220;80;21131;-36
2020/12/26 03:00:49;;;;;;;4.55;2.05;;;;;;;2.68;63.78;99049.94;1766871;80;21270;-36
2020/12/26 03:03:19;;;;;;;2.95;2.10;;;;;;;2.62;63.69;99056.00;1757871;80;21195;-36
2020/12/26 03:05:48;;;;;;;4.10;2.20;;;;;;;2.54;63.83;99052.22;1762727;80;21131;-36
2020/12/26 03:08:16;;;;;;;2.33;1.90;;;;;;;2.52;63.73;99046.94;1748558;82;21405;-36
2020/12/26 03:10:44;;;;;;;3.12;2.08;;;;;;;2.52;63.82;99049.61;1748064;82;21175;-36
2020/12/26 03:13:13;;;;;;;2.42;1.57;;;;;;;2.52;64.01;99049.06;1802255;79;21342;-36
2020/12/26 03:15:41;;;;;;;2.45;1.67;;;;;;;2.53;63.85;99051.98;1787953;78;21185;-36
2020/12/26 03:18:09;;;;;;;2.22;1.60;;;;;;;2.56;63.88;99054.05;1784004;78;21594;-36
2020/12/26 03:20:38;;;;;;;2.50;1.70;;;;;;;2.54;63.71;99058.91;1798865;79;21190;-36
2020/12/26 03:23:06;;;;;;;2.15;1.55;;;;;;;2.56;63.83;99058.61;1746548;80;21151;-36
2020/12/26 03:25:35;;;;;;;2.27;1.70;;;;;;;2.53;63.90;99060.55;1789850;78;21295;-36
2020/12/26 03:28:03;;;;;;;6.00;1.47;;;;;;;2.54;63.83;99058.91;1786451;79;21102;-36
2020/12/26 03:30:31;;;;;;;2.17;1.32;;;;;;;2.55;63.88;99059.70;1746402;80;20996;-36
2020/12/26 03:33:00;;;;;;;2.08;1.52;;;;;;;2.56;64.02;99055.94;1784794;78;21154;-36
2020/12/26 03:35:28;;;;;;;1.65;1.42;;;;;;;2.58;63.88;99061.74;1792423;78;21166;-36
2020/12/26 03:37:56;;;;;;;2.40;1.52;;;;;;;2.60;63.93;99058.21;1802685;78;21360;-36
2020/12/26 03:40:25;;;;;;;2.50;1.50;;;;;;;2.62;64.11;99056.00;1785108;78;21119;-36
2020/12/26 03:42:53;;;;;;;2.12;1.35;;;;;;;2.67;64.22;99058.52;1808862;78;21115;-36
2020/12/26 03:45:21;;;;;;;2.20;1.62;;;;;;;2.69;64.23;99063.02;1813616;78;21110;-36
2020/12/26 03:47:51;;;;;;;1.70;1.50;;;;;;;2.72;64.13;99049.00;1821825;78;21162;-36
2020/12/26 03:50:19;;;;;;;2.12;1.40;;;;;;;2.73;64.20;99049.23;1797281;78;21387;-36
2020/12/26 03:52:50;;;;;;;1.50;1.20;;;;;;;2.74;64.20;99048.69;1792742;79;21143;-36
2020/12/26 03:55:18;;;;;;;1.70;1.40;;;;;;;2.77;64.08;99054.19;1802032;79;21131;-36
2020/12/26 03:57:46;;;;;;;2.75;1.52;;;;;;;2.83;64.16;99050.27;1727556;80;21189;-36
2020/12/26 04:00:14;;;;;;;2.15;1.30;;;;;;;2.86;64.08;99049.63;1751126;80;21139;-36
2020/12/26 04:02:44;;;;;;;2.87;1.50;;;;;;;2.90;63.93;99051.92;1722983;80;25142;-36
2020/12/26 04:05:14;;;;;;;2.00;1.45;;;;;;;2.89;63.89;99044.99;1736705;81;21551;-36
2020/12/26 04:07:42;;;;;;;2.35;1.67;;;;;;;2.92;63.77;99056.39;1728348;81;21839;-36
2020/12/26 04:10:11;;;;;;;2.98;1.60;;;;;;;2.92;63.57;99055.61;1705999;82;21190;-36
2020/12/26 04:12:39;;;;;;;2.77;1.85;;;;;;;2.92;63.69;99057.73;1753709;80;21178;-36
2020/12/26 04:15:07;;;;;;;2.10;1.62;;;;;;;2.91;63.45;99061.52;1786122;79;21191;-36
2020/12/26 04:17:36;;;;;;;2.35;1.70;;;;;;;2.90;63.32;99060.51;1803623;79;21024;-36
2020/12/26 04:20:04;;;;;;;2.80;1.70;;;;;;;2.87;63.49;99067.27;1804305;79;21552;-36
2020/12/26 04:22:32;;;;;;;2.75;1.70;;;;;;;2.84;63.49;99073.26;1797808;79;21071;-36
2020/12/26 04:25:00;;;;;;;1.87;1.65;;;;;;;2.88;63.39;99082.78;1781457;79;21182;-36
2020/12/26 04:27:29;;;;;;;1.90;1.62;;;;;;;2.86;63.18;99074.27;1773188;79;21197;-36
2020/12/26 04:29:57;;;;;;;2.10;1.50;;;;;;;2.83;63.32;99071.68;1774309;79;21155;-36
2020/12/26 04:32:26;;;;;;;1.95;1.15;;;;;;;2.88;63.79;99071.52;1774693;79;21598;-36
2020/12/26 04:34:55;;;;;;;2.83;1.82;;;;;;;2.90;63.59;99078.70;1772533;81;21151;-36
2020/12/26 04:37:23;;;;;;;2.20;1.42;;;;;;;2.88;63.30;99082.23;1787225;79;21170;-36
2020/12/26 04:39:52;;;;;;;2.72;1.35;;;;;;;2.89;63.13;99086.48;1779601;79;22289;-36
2020/12/26 04:42:21;;;;;;;1.70;1.40;;;;;;;2.86;62.99;99089.78;1778281;79;21605;-35
2020/12/26 04:44:52;;;;;;;2.92;1.80;;;;;;;2.84;62.91;99092.55;1787948;79;21149;-36
2020/12/26 04:47:40;;;;;;;2.22;1.65;;;;;;;2.77;62.99;99091.67;1774335;79;21641;-36
2020/12/26 04:52:23;;;;;;;2.15;1.52;;;;;;;2.67;63.16;99100.00;1769861;79;22838;-36
2020/12/26 04:54:52;;;;;;;2.22;1.87;;;;;;;2.49;63.31;99102.42;1722885;82;21025;-36
2020/12/26 04:57:21;;;;;;;;;;;;;;;2.46;63.61;99105.73;1722552;82;22462;-36
2020/12/26 04:59:50;;;;;;;2.67;1.70;;;;;;;2.36;63.84;99114.05;1719894;82;20143;-36
2020/12/26 05:02:18;;;;;;;2.85;1.90;;;;;;;2.24;64.14;99116.52;1736126;82;21326;-36
2020/12/26 05:04:47;;;;;;;2.62;1.72;;;;;;;1.84;64.30;99059.05;1727133;82;21023;-36
2020/12/26 05:07:15;;;;;;;3.17;1.92;;;;;;;2.14;64.50;99109.02;1745862;82;20996;-36
2020/12/26 05:09:44;;;;;;;2.35;1.60;;;;;;;2.15;64.60;99107.13;1719607;82;21272;-36
2020/12/26 05:12:12;;;;;;;3.08;1.85;;;;;;;2.14;64.63;99108.22;1719317;82;21063;-36
2020/12/26 05:14:40;;;;;;;2.72;1.77;;;;;;;1.80;64.63;99063.98;1719763;82;21012;-36
2020/12/26 05:17:09;;;;;;;3.00;1.98;;;;;;;2.09;64.83;99111.83;1718706;82;21418;-36
2020/12/26 05:19:39;;;;;;;2.77;1.72;;;;;;;2.03;64.88;99105.61;1719474;82;21185;-36
2020/12/26 05:22:07;;;;;;;2.02;1.52;;;;;;;2.04;65.03;99111.97;1672986;82;21400;-35
2020/12/26 05:24:37;;;;;;;2.10;1.40;;;;;;;2.00;65.19;99123.04;1668564;83;21043;-36
2020/12/26 05:27:05;;;;;;;2.33;1.50;;;;;;;1.99;65.24;99131.36;1726132;82;21020;-36
2020/12/26 05:29:37;;;;;;;2.00;1.35;;;;;;;1.98;65.25;99137.83;1731427;82;21416;-36
2020/12/26 05:32:04;;;;;;;2.12;1.55;;;;;;;1.91;65.37;99135.59;1740674;82;21142;-35
2020/12/26 05:34:39;;;;;;;1.67;1.40;;;;;;;1.83;65.61;99137.68;1745845;82;21376;-36
2020/12/26 05:37:08;;;;;;;1.50;1.27;;;;;;;1.78;65.96;99139.14;1740634;81;21119;-36
2020/12/26 05:39:40;;;;;;;2.92;1.65;;;;;;;1.70;66.25;99137.20;1746620;82;21154;-35
2020/12/26 05:42:08;;;;;;;2.42;1.80;;;;;;;1.68;66.52;99142.08;1748559;82;21151;-36
2020/12/26 05:44:38;;;;;;;4.15;1.85;;;;;;;1.62;66.75;99143.29;1732964;82;21044;-36
2020/12/26 05:47:06;;;;;;;4.35;1.90;;;;;;;1.62;66.87;99142.74;1719927;82;21291;-36
2020/12/26 05:49:37;;;;;;;2.33;1.80;;;;;;;1.55;67.12;99146.95;1719453;82;21182;-36
2020/12/26 05:52:12;;;;;;;3.22;2.00;;;;;;;1.51;67.35;99141.41;1714829;83;21614;-36
2020/12/26 05:54:51;;;;;;;3.12;2.30;;;;;;;1.50;67.51;99141.73;1714193;82;21578;-36
2020/12/26 05:57:20;;;;;;;2.40;1.90;;;;;;;1.43;67.79;99138.69;1715347;82;21178;-36
2020/12/26 05:59:52;;;;;;;3.00;2.45;;;;;;;1.38;67.91;99138.81;1715303;82;21361;-35
2020/12/26 06:02:26;;;;;;;4.35;2.52;;;;;;;1.30;68.25;99142.47;1714300;82;21910;-36
2020/12/26 06:05:05;;;;;;;4.20;2.83;;;;;;;1.26;68.47;99145.48;1713818;82;21196;-36
2020/12/26 06:07:36;;;;;;;3.58;1.92;;;;;;;1.26;68.63;99148.14;1718667;82;21570;-36
2020/12/26 06:10:06;;;;;;;3.27;2.40;;;;;;;1.34;68.54;99152.53;1713718;82;21649;-36
2020/12/26 06:12:36;;;;;;;3.52;2.35;;;;;;;1.31;68.65;99155.25;1719055;82;21384;-36
2020/12/26 06:15:04;;;;;;;4.33;2.50;;;;;;;1.27;68.76;99160.41;1719817;82;21660;-36
2020/12/26 06:17:33;;;;;;;1.65;1.47;;;;;;;1.27;68.86;99168.42;1713514;82;21177;-36
2020/12/26 06:20:06;;;;;;;3.55;2.20;;;;;;;1.28;68.88;99168.67;1729341;82;21100;-36
2020/12/26 06:22:49;;;;;;;2.20;1.95;;;;;;;1.27;68.96;99173.77;1729251;82;21028;-36
2020/12/26 06:25:21;;;;;;;5.15;2.33;;;;;;;1.31;68.97;99172.06;1727758;82;22242;-36
2020/12/26 06:27:59;;;;;;;3.45;2.58;;;;;;;1.00;68.92;99131.70;1741888;82;21159;-36
2020/12/26 06:30:31;;;;;;;3.47;2.67;;;;;;;1.35;69.02;99182.95;1740462;82;21130;-36
2020/12/26 06:32:59;;;;;;;5.30;3.67;;;;;;;1.41;68.89;99183.05;1714316;82;21135;-36
2020/12/26 06:35:30;;;;;;;8.93;5.23;;;;;;;1.45;68.96;99190.73;1713571;82;21191;-35
2020/12/26 06:38:18;;;;;;;8.23;5.87;;;;;;;1.48;69.00;99190.11;1713363;83;21346;-36
2020/12/26 06:40:59;;;;;;;6.47;5.12;;;;;;;1.53;69.06;99191.88;1728009;82;21171;-36
2020/12/26 06:43:48;;;;;;;8.33;4.97;;;;;;;1.57;69.09;99196.30;1726288;82;21189;-36
2020/12/26 06:46:27;;;;;;;6.30;4.53;;;;;;;1.59;69.16;99201.35;1713166;83;21143;-36
2020/12/26 06:48:57;;;;;;;6.67;4.33;;;;;;;1.66;69.25;99207.05;1720738;82;21123;-35
2020/12/26 06:51:29;;;;;;;6.17;3.92;;;;;;;1.72;69.29;99204.50;1730597;82;22283;-36
2020/12/26 06:54:01;;;;;;;7.08;3.70;;;;;;;1.79;69.21;99207.55;1739334;82;21139;-36
2020/12/26 06:56:38;;;;;;;10.60;6.17;;;;;;;1.83;69.33;99201.83;1731204;82;21593;-38
2020/12/26 06:59:11;;;;;;;9.75;6.42;;;;;;;1.86;69.43;99206.55;1738904;82;21067;-39
2020/12/26 07:01:44;;;;;;;8.53;6.50;;;;;;;1.96;69.40;99216.20;1719515;82;21444;-39
2020/12/26 07:04:18;;;;;;;9.80;5.95;;;;;;;1.97;69.57;99210.55;1718770;83;21218;-38
2020/12/26 07:06:55;;;;;;;8.70;4.92;;;;;;;1.98;69.67;99205.45;1719162;82;21044;-39
2020/12/26 07:09:41;;;;;;;7.35;4.55;;;;;;;2.01;69.74;99215.52;1724611;82;21153;-39
2020/12/26 07:12:11;;;;;;;6.05;4.22;;;;;;;2.02;69.96;99214.98;1726079;81;21629;-39
2020/12/26 07:14:41;;;;;;;7.58;4.70;;;;;;;2.11;69.92;99205.91;1720910;82;21135;-39
2020/12/26 07:17:24;;;;;;;5.53;4.05;;;;;;;2.21;69.86;99205.40;1719973;82;25020;-39
2020/12/26 07:19:58;;;;;;;8.48;4.25;;;;;;;2.24;69.84;99208.78;1720559;82;21163;-39
2020/12/26 07:22:30;;;;;;;6.15;3.60;;;;;;;2.24;69.92;99214.13;1703338;82;21075;-38
2020/12/26 07:25:07;;;;;;;6.90;3.77;;;;;;;2.25;69.95;99210.37;1648567;86;21203;-38
2020/12/26 07:27:37;;;;;;;5.35;3.50;;;;;;;2.23;70.07;99222.70;1710056;83;21214;-39
2020/12/26 07:30:19;;;;;;;5.00;3.35;;;;;;;2.26;70.13;99225.33;1718187;83;22054;-39
2020/12/26 07:32:58;;;;;;;3.75;3.17;;;;;;;2.26;70.25;99231.47;1686641;84;21137;-39
2020/12/26 07:35:36;;;;;;;6.92;3.47;;;;;;;2.26;70.40;99243.50;1707964;83;28334;-39
2020/12/26 07:38:08;;;;;;;6.35;3.80;;;;;;;2.30;70.43;99238.32;1715402;83;21568;-39
2020/12/26 07:40:39;;;;;;;5.20;3.80;;;;;;;2.32;70.59;99237.48;1717276;83;21167;-38
2020/12/26 07:43:10;;;;;;;5.78;4.33;;;;;;;2.32;70.64;99236.94;1715059;83;21248;-39
2020/12/26 07:45:41;;;;;;;8.10;5.33;;;;;;;2.31;70.73;99233.22;1708777;83;21248;-39
2020/12/26 07:48:10;;;;;;;6.20;4.40;;;;;;;2.30;70.86;99245.01;1708618;82;21119;-39
2020/12/26 07:50:40;;;;;;;5.40;3.98;;;;;;;2.35;70.79;99243.54;1707133;83;21185;-38
2020/12/26 07:53:10;;;;;;;5.17;3.98;;;;;;;2.37;70.80;99253.40;1683795;84;21189;-39
2020/12/26 07:55:39;;;;;;;5.28;2.95;;;;;;;2.36;70.95;99246.47;1688761;84;21658;-39
2020/12/26 07:58:11;;;;;;;4.22;3.17;;;;;;;2.35;71.09;99263.60;1704911;84;21134;-39
2020/12/26 08:00:44;;;;;;;4.65;2.90;;;;;;;2.31;71.26;99261.30;1701741;82;21756;-39
2020/12/26 08:03:13;;;;;;;3.85;2.37;;;;;;;2.28;71.42;99251.20;1678444;84;21146;-39
2020/12/26 08:05:48;;;;;;;4.75;3.08;;;;;;;2.33;71.49;99259.09;1668063;85;21063;-39
2020/12/26 08:08:21;;;;;;;6.50;2.85;;;;;;;2.42;71.33;99254.03;1705190;84;21365;-39
2020/12/26 08:10:59;;;;;;;5.42;2.92;;;;;;;2.45;71.30;99264.13;1705253;84;20981;-39
2020/12/26 08:13:29;;;;;;;5.00;2.90;;;;;;;2.47;71.30;99267.27;1705202;84;21167;-39
2020/12/26 08:16:05;;;;;;;4.47;3.30;;;;;;;2.48;71.38;99277.43;1683452;84;21152;-39
2020/12/26 08:18:35;;;;;;;5.05;3.37;;;;;;;2.46;71.37;99275.08;1705304;84;21883;-39
2020/12/26 08:21:06;;;;;;;4.83;3.30;;;;;;;2.50;71.44;99265.34;1685838;84;21382;-40
2020/12/26 08:23:34;;;;;;;4.12;3.52;;;;;;;2.57;71.26;99264.88;1704434;84;21378;-39
2020/12/26 08:26:03;;;;;;;5.62;3.65;;;;;;;2.62;71.22;99266.87;1701961;84;21016;-39
2020/12/26 08:28:33;;;;;;;9.33;4.10;;;;;;;2.61;71.37;99259.94;1704509;84;21700;-39
2020/12/26 08:31:02;;;;;;;6.17;3.90;;;;;;;2.65;71.38;99266.02;1642658;84;21757;-40
2020/12/26 08:33:35;;;;;;;4.75;4.08;;;;;;;2.66;71.37;99266.27;1663323;84;22160;-39
2020/12/26 08:36:35;;;;;;;5.10;4.05;;;;;;;2.64;71.46;99263.89;1642988;85;21170;-39
2020/12/26 08:39:03;;;;;;;6.20;3.98;;;;;;;2.67;71.51;99265.15;1663052;85;21654;-39
2020/12/26 08:41:34;;;;;;;5.65;3.83;;;;;;;2.80;71.43;99258.92;1656212;85;21189;-40
2020/12/26 08:44:05;;;;;;;6.15;4.05;;;;;;;2.96;71.18;99247.45;1656045;86;21127;-39
2020/12/26 08:46:35;;;;;;;5.83;3.75;;;;;;;3.02;70.96;99236.84;1631774;86;21223;-40
2020/12/26 08:49:04;;;;;;;6.83;3.80;;;;;;;3.06;70.89;99232.43;1613927;86;21215;-39
2020/12/26 08:51:32;;;;;;;6.10;3.80;;;;;;;3.09;70.64;99224.34;1704728;83;21151;-39
2020/12/26 08:54:00;;;;;;;5.28;3.45;;;;;;;3.00;70.59;99205.55;1652459;85;21617;-39
2020/12/26 08:56:36;;;;;;;6.92;4.30;;;;;;;3.06;70.51;99212.89;1646793;85;21000;-40
2020/12/26 08:59:05;;;;;;;5.80;4.28;;;;;;;3.06;70.44;99208.33;1666650;86;21614;-39
2020/12/26 09:01:33;;;;;;;5.58;3.80;;;;;;;3.12;70.15;99207.63;1665775;85;21211;-38
2020/12/26 09:04:07;;;;;;;8.08;4.62;;;;;;;3.11;70.27;99215.42;1664750;86;21097;-40
2020/12/26 09:06:43;;;;;;;7.47;5.08;;;;;;;3.05;70.47;99220.13;1637577;86;21424;-39
2020/12/26 09:09:20;;;;;;;6.03;4.15;;;;;;;3.12;70.47;99234.96;1662566;86;21111;-39
2020/12/26 09:12:01;;;;;;;8.67;5.43;;;;;;;3.09;70.31;99236.94;1666580;85;21211;-40
2020/12/26 09:14:29;;;;;;;7.10;4.72;;;;;;;3.01;70.38;99248.64;1665749;86;21194;-39
2020/12/26 09:16:59;;;;;;;5.60;4.30;;;;;;;2.97;70.62;99260.30;1664661;86;21159;-40
2020/12/26 09:19:27;;;;;;;7.00;4.22;;;;;;;2.99;70.77;99268.81;1665592;86;21219;-40
2020/12/26 09:22:09;;;;;;;9.38;5.08;;;;;;;2.97;70.84;99277.16;1696053;84;21225;-39
2020/12/26 09:24:38;;;;;;;5.60;4.50;;;;;;;2.96;71.04;99278.79;1700773;84;21221;-39
2020/12/26 09:27:21;;;;;;;8.63;4.85;;;;;;;2.90;71.14;99296.91;1704706;83;21208;-39
2020/12/26 09:29:51;;;;;;;6.83;4.97;;;;;;;2.86;71.30;99293.80;1697222;84;21139;-39
2020/12/26 09:32:19;;;;;;;6.72;4.30;;;;;;;2.88;71.49;99299.09;1642819;85;21645;-40
2020/12/26 09:34:48;;;;;;;8.55;4.47;;;;;;;2.89;71.64;99293.98;1701534;83;21128;-39
2020/12/26 09:37:16;;;;;;;7.55;5.30;;;;;;;2.85;71.66;99289.02;1690404;84;21549;-39
2020/12/26 09:39:44;;;;;;;7.00;4.95;;;;;;;2.81;71.85;99296.06;1705226;84;21052;-39
2020/12/26 09:42:13;;;;;;;6.53;4.95;;;;;;;2.77;71.93;99295.11;1685390;84;21060;-39
2020/12/26 09:44:41;;;;;;;5.97;4.65;;;;;;;2.81;72.09;99282.68;1704143;84;21169;-40
2020/12/26 09:47:10;;;;;;;10.53;5.30;;;;;;;2.91;72.02;99294.45;1672322;84;21122;-39
2020/12/26 09:49:38;;;;;;;9.20;5.37;;;;;;;2.94;71.94;99293.85;1702983;84;21385;-39
2020/12/26 09:52:07;;;;;;;8.38;5.37;;;;;;;2.93;71.98;99301.64;1707716;83;21185;-39
2020/12/26 09:54:35;;;;;;;6.85;5.20;;;;;;;2.94;71.96;99300.55;1718684;83;21207;-40
2020/12/26 09:57:03;;;;;;;7.58;4.72;;;;;;;2.97;71.82;99308.49;1685607;84;21210;-39
2020/12/26 09:59:32;;;;;;;10.85;5.70;;;;;;;3.01;71.62;99307.56;1708440;83;21174;-39
2020/12/26 10:02:01;;;;;;;7.20;4.92;;;;;;;3.02;71.55;99300.31;1713102;83;21199;-39
2020/12/26 10:04:29;;;;;;;6.75;4.92;;;;;;;2.99;71.67;99291.03;1694605;83;21186;-39
2020/12/26 10:06:57;;;;;;;8.00;5.00;;;;;;;2.95;72.00;99292.73;1718182;83;21162;-39
2020/12/26 10:09:26;;;;;;;8.43;4.53;;;;;;;2.92;72.20;99295.24;1714516;83;21401;-39
2020/12/26 10:11:55;;;;;;;8.80;5.28;;;;;;;2.93;72.30;99302.19;1716157;83;21162;-39
2020/12/26 10:14:23;;;;;;;11.18;5.80;;;;;;;2.97;72.39;99302.59;1717849;83;21154;-39
2020/12/26 10:16:53;;;;;;;;;;;;;;;2.98;72.32;99298.03;1721076;83;21154;-39
2020/12/26 10:19:22;;;;;;;7.83;5.33;;;;;;;2.95;72.44;99300.00;1708674;83;20192;-39
2020/12/26 10:21:53;;;;;;;8.13;5.47;;;;;;;2.81;72.94;99306.78;1713966;83;21141;-38
2020/12/26 10:24:21;;;;;;;6.62;4.58;;;;;;;2.81;72.91;99310.80;1713201;83;21150;-39
2020/12/26 10:26:50;;;;;;;7.50;4.97;;;;;;;2.84;72.97;99318.77;1718593;83;21163;-39
2020/12/26 10:29:19;;;;;;;6.95;4.62;;;;;;;2.88;72.99;99313.03;1710688;83;21167;-39
2020/12/26 10:31:47;;;;;;;6.85;4.75;;;;;;;2.88;73.03;99319.73;1718861;83;21158;-39
2020/12/26 10:34:17;;;;;;;8.45;5.25;;;;;;;2.88;73.05;99312.48;1713101;83;21158;-36
2020/12/26 10:36:46;;;;;;;9.33;5.05;;;;;;;2.88;73.23;99327.21;1704563;83;21094;-36
2020/12/26 10:39:14;;;;;;;7.90;5.15;;;;;;;2.91;73.13;99323.11;1718627;83;21493;-36
2020/12/26 10:41:46;;;;;;;7.35;4.78;;;;;;;2.96;73.08;99321.09;1717851;83;20997;-36
2020/12/26 10:44:14;;;;;;;7.47;4.58;;;;;;;2.94;73.04;99316.61;1698471;83;21198;-36
2020/12/26 10:46:44;;;;;;;7.30;5.17;;;;;;;2.89;73.11;99319.42;1718243;83;21230;-36
2020/12/26 10:49:13;;;;;;;7.35;5.25;;;;;;;2.83;73.14;99316.64;1702844;83;21150;-36
2020/12/26 10:51:41;;;;;;;8.83;5.33;;;;;;;2.81;73.36;99312.70;1694410;83;21271;-36
2020/12/26 10:54:10;;;;;;;8.40;5.25;;;;;;;2.89;73.38;99322.11;1706371;83;21024;-36
2020/12/26 10:56:38;;;;;;;8.93;5.62;;;;;;;2.93;73.28;99319.04;1701935;84;21143;-36
2020/12/26 10:59:06;;;;;;;7.35;5.55;;;;;;;2.93;73.21;99322.27;1703624;84;21154;-36
2020/12/26 11:01:35;;;;;;;8.15;5.75;;;;;;;2.91;73.31;99340.52;1701197;84;21179;-36
2020/12/26 11:04:03;;;;;;;8.45;5.55;;;;;;;2.50;73.36;99272.57;1704340;84;21225;-36
2020/12/26 11:06:31;;;;;;;6.42;5.08;;;;;;;2.91;73.36;99325.24;1705174;84;21076;-36
2020/12/26 11:08:59;;;;;;;7.90;5.67;;;;;;;2.99;72.96;99327.19;1703231;84;21159;-36
2020/12/26 11:11:29;;;;;;;8.30;5.55;;;;;;;2.98;73.08;99324.26;1668078;84;21728;-37
2020/12/26 11:14:01;;;;;;;11.35;6.45;;;;;;;2.99;73.08;99320.48;1702877;83;21677;-36
2020/12/26 11:16:30;;;;;;;7.50;5.12;;;;;;;3.00;73.07;99326.06;1703706;84;21367;-36
2020/12/26 11:18:58;;;;;;;6.75;5.58;;;;;;;3.08;72.98;99325.08;1704924;84;21767;-36
2020/12/26 11:21:26;;;;;;;10.40;6.00;;;;;;;3.15;72.77;99332.88;1703543;83;21472;-37
2020/12/26 11:23:55;;;;;;;9.90;5.42;;;;;;;3.20;72.71;99334.62;1692053;84;21063;-37
2020/12/26 11:26:24;;;;;;;;;;;;;;;3.22;72.78;99330.55;1707486;83;21168;-37
2020/12/26 11:28:53;;;;;;;7.90;5.12;;;;;;;3.20;72.70;99334.62;1699315;84;21457;-37
2020/12/26 11:31:25;;;;;;;8.95;5.47;;;;;;;3.08;73.05;99328.55;1689445;84;21135;-36
2020/12/26 11:33:54;;;;;;;9.73;5.72;;;;;;;3.12;73.20;99334.06;1697880;84;20999;-37
2020/12/26 11:36:25;;;;;;;6.65;5.03;;;;;;;3.21;73.09;99329.52;1705158;84;21165;-36
2020/12/26 11:38:55;;;;;;;7.62;4.65;;;;;;;3.24;72.61;99331.05;1704322;84;21590;-37
2020/12/26 11:41:26;;;;;;;7.78;5.08;;;;;;;3.22;72.57;99328.42;1705204;84;21194;-36
2020/12/26 11:43:55;;;;;;;6.60;4.12;;;;;;;3.22;72.55;99327.08;1703982;84;21083;-37
2020/12/26 11:46:26;;;;;;;8.10;5.62;;;;;;;3.20;71.62;99327.93;1705040;84;21578;-37
2020/12/26 11:48:54;;;;;;;7.92;4.97;;;;;;;3.28;71.00;99333.34;1662536;85;21201;-37
2020/12/26 11:51:23;;;;;;;7.03;5.65;;;;;;;3.32;71.02;99330.27;1680487;84;21178;-37
2020/12/26 11:53:55;;;;;;;8.13;5.45;;;;;;;3.33;70.17;99327.83;1695152;83;23456;-37
2020/12/26 11:56:25;;;;;;;6.87;5.17;;;;;;;2.98;69.07;99285.43;1700118;84;21867;-36
2020/12/26 11:58:54;;;;;;;5.67;4.50;;;;;;;3.28;68.66;99333.88;1703144;84;21159;-37
2020/12/26 12:01:27;;;;;;;7.37;4.67;;;;;;;3.26;67.74;99338.75;1668055;85;21175;-37